Time;durP1;ratioP1;P1;durP2;ratioP2;P2;SDS_P1;SDS_P2;PMS_P1;PMS_P2;Temp;Humidity;BMP_temperature;BMP_pressure;BME280_temperature;BME280_humidity;BME280_pressure;Samples;Min_cycle;Max_cycle;Signal;HPM_P1;HPM_P2
2023/10/10 00:00:04;;;;;;;10.95;9.85;;;15.50;99.90;;;;;;5116831;27;20511;-66
2023/10/10 00:02:32;;;;;;;11.80;10.40;;;15.40;99.90;;;;;;5124866;27;20418;-67
2023/10/10 00:05:03;;;;;;;12.77;10.30;;;15.40;99.90;;;;;;5120134;27;20464;-68
2023/10/10 00:07:30;;;;;;;12.50;10.85;;;15.40;99.90;;;;;;5123705;27;20849;-71
2023/10/10 00:09:59;;;;;;;12.10;10.80;;;15.40;99.90;;;;;;5120786;28;20509;-67
2023/10/10 00:12:29;;;;;;;10.82;9.73;;;15.30;99.90;;;;;;5117714;27;20515;-68
2023/10/10 00:14:58;;;;;;;11.63;10.50;;;15.30;99.90;;;;;;5121410;27;20444;-66
2023/10/10 00:17:29;;;;;;;12.20;11.00;;;15.30;99.90;;;;;;5129814;27;20465;-67
2023/10/10 00:20:16;;;;;;;13.98;11.00;;;15.20;99.90;;;;;;5123503;27;20428;-67
2023/10/10 00:22:46;;;;;;;11.95;10.65;;;15.20;99.90;;;;;;5132028;27;20406;-68
2023/10/10 00:25:13;;;;;;;11.98;10.50;;;15.20;99.90;;;;;;5123237;27;20430;-66
2023/10/10 00:27:43;;;;;;;12.65;10.98;;;15.20;99.90;;;;;;5130991;27;21653;-67
2023/10/10 00:30:13;;;;;;;13.20;11.65;;;15.10;99.90;;;;;;5129538;27;20890;-66
2023/10/10 00:32:42;;;;;;;12.95;11.00;;;15.10;99.90;;;;;;5135236;27;20426;-65
2023/10/10 00:35:10;;;;;;;12.63;11.43;;;15.10;99.90;;;;;;5129978;27;20468;-67
2023/10/10 00:37:37;;;;;;;12.68;11.18;;;15.00;99.90;;;;;;5122295;27;20426;-67
2023/10/10 00:40:08;;;;;;;12.07;10.70;;;15.00;99.90;;;;;;5125822;27;20429;-67
2023/10/10 00:42:40;;;;;;;12.63;11.30;;;14.90;99.90;;;;;;5131106;27;20430;-67
2023/10/10 00:45:12;;;;;;;12.32;11.23;;;14.90;99.90;;;;;;5124130;27;20452;-68
2023/10/10 00:47:40;;;;;;;11.95;10.48;;;14.90;99.90;;;;;;5122900;27;20426;-66
2023/10/10 00:50:15;;;;;;;12.05;10.70;;;14.90;99.90;;;;;;5119255;27;20426;-67
2023/10/10 00:52:44;;;;;;;12.13;10.60;;;14.90;99.90;;;;;;5143744;27;20578;-65
2023/10/10 00:55:12;;;;;;;12.93;11.50;;;14.90;99.90;;;;;;5153010;27;20841;-65
2023/10/10 00:57:40;;;;;;;12.52;11.23;;;14.80;99.90;;;;;;5136028;27;20422;-67
2023/10/10 01:00:09;;;;;;;12.00;10.90;;;14.90;99.90;;;;;;5127714;27;20441;-67
2023/10/10 01:02:37;;;;;;;11.13;9.90;;;14.90;99.90;;;;;;5125984;27;20427;-68
2023/10/10 01:05:12;;;;;;;12.10;10.80;;;14.80;99.90;;;;;;5122946;27;20435;-68
2023/10/10 01:07:40;;;;;;;13.15;11.77;;;14.80;99.90;;;;;;5127498;27;20422;-68
2023/10/10 01:10:11;;;;;;;12.15;10.88;;;14.90;99.90;;;;;;5128293;27;20427;-68
2023/10/10 01:12:40;;;;;;;12.23;10.68;;;14.90;99.90;;;;;;5144987;27;20426;-67
2023/10/10 01:15:14;;;;;;;11.93;10.73;;;14.90;99.90;;;;;;5130076;27;20504;-68
2023/10/10 01:17:42;;;;;;;12.63;11.32;;;14.90;99.90;;;;;;5136319;27;20941;-69
2023/10/10 01:20:17;;;;;;;12.10;10.90;;;14.90;99.90;;;;;;5122311;27;20505;-67
2023/10/10 01:22:47;;;;;;;11.35;10.25;;;14.90;99.90;;;;;;5126394;27;20576;-69
2023/10/10 01:25:41;;;;;;;12.27;11.07;;;14.80;99.90;;;;;;5130695;27;20905;-68
2023/10/10 01:28:22;;;;;;;12.30;11.10;;;14.90;99.90;;;;;;5126911;27;20784;-66
2023/10/10 01:30:59;;;;;;;11.30;10.20;;;14.80;99.90;;;;;;5123756;27;20411;-67
2023/10/10 01:33:35;;;;;;;11.23;10.13;;;14.80;99.90;;;;;;5119585;27;20431;-68
2023/10/10 01:36:11;;;;;;;11.27;9.88;;;14.80;99.90;;;;;;5123894;27;20835;-67
2023/10/10 01:39:00;;;;;;;11.20;9.77;;;14.70;99.90;;;;;;5130935;27;20479;-67
2023/10/10 01:41:38;;;;;;;12.03;10.03;;;14.70;99.90;;;;;;5122898;27;20525;-67
2023/10/10 01:44:12;;;;;;;10.43;9.07;;;14.70;99.90;;;;;;5122068;27;20417;-68
2023/10/10 01:46:40;;;;;;;11.00;9.18;;;14.70;99.90;;;;;;5123372;27;20426;-69
2023/10/10 01:49:13;;;;;;;10.80;9.70;;;14.70;99.90;;;;;;5123776;27;20427;-68
2023/10/10 01:51:42;;;;;;;10.50;9.40;;;14.70;99.90;;;;;;5126603;27;20426;-68
2023/10/10 01:54:15;;;;;;;14.77;9.13;;;14.70;99.90;;;;;;5126257;27;20426;-67
2023/10/10 01:56:43;;;;;;;10.90;9.70;;;14.70;99.90;;;;;;5124816;27;20417;-66
2023/10/10 01:59:13;;;;;;;10.15;9.10;;;14.60;99.90;;;;;;5125178;27;20451;-66
2023/10/10 02:01:41;;;;;;;11.80;9.40;;;14.60;99.90;;;;;;5130123;27;20497;-68
2023/10/10 02:04:08;;;;;;;10.75;9.10;;;14.60;99.90;;;;;;5123106;27;20432;-66
2023/10/10 02:06:37;;;;;;;9.93;8.50;;;14.70;99.90;;;;;;5123493;27;20424;-68
2023/10/10 02:09:11;;;;;;;10.30;8.70;;;14.60;99.90;;;;;;5132564;27;20422;-66
2023/10/10 02:11:49;;;;;;;11.70;9.30;;;14.60;99.90;;;;;;5125396;27;20966;-68
2023/10/10 02:14:18;;;;;;;11.17;9.00;;;14.60;99.90;;;;;;5124014;27;20410;-68
2023/10/10 02:16:48;;;;;;;11.43;9.05;;;14.60;99.90;;;;;;5124662;27;20429;-68
2023/10/10 02:19:25;;;;;;;9.40;8.40;;;14.50;99.90;;;;;;5120733;27;20470;-68
2023/10/10 02:22:03;;;;;;;9.20;8.30;;;14.50;99.90;;;;;;5124296;27;20521;-68
2023/10/10 02:24:38;;;;;;;12.27;8.60;;;14.50;99.90;;;;;;5125244;27;20422;-68
2023/10/10 02:27:06;;;;;;;9.00;8.07;;;14.40;99.90;;;;;;5125586;27;20495;-67
2023/10/10 02:29:35;;;;;;;11.18;8.23;;;14.40;99.90;;;;;;5130814;27;20426;-66
2023/10/10 02:32:13;;;;;;;9.65;8.27;;;14.40;99.90;;;;;;5124573;27;20418;-68
2023/10/10 02:34:42;;;;;;;9.65;8.15;;;14.40;99.90;;;;;;5124334;27;20435;-67
2023/10/10 02:37:30;;;;;;;9.05;7.85;;;14.40;99.90;;;;;;5112463;27;20999;-68
2023/10/10 02:40:07;;;;;;;8.50;7.60;;;14.40;99.90;;;;;;5118881;27;20461;-67
2023/10/10 02:42:35;;;;;;;9.07;7.68;;;14.30;99.90;;;;;;5122253;27;20430;-67
2023/10/10 02:45:02;;;;;;;9.60;8.57;;;14.30;99.90;;;;;;5119904;27;20419;-68
2023/10/10 02:47:32;;;;;;;10.10;7.47;;;14.30;99.90;;;;;;5123499;27;20422;-67
2023/10/10 02:50:09;;;;;;;9.57;8.43;;;14.30;99.90;;;;;;5122356;27;20424;-69
2023/10/10 02:52:38;;;;;;;8.73;7.70;;;14.30;99.90;;;;;;5125685;27;20649;-67
2023/10/10 02:55:12;;;;;;;11.02;7.90;;;14.30;99.90;;;;;;5127207;27;20413;-67
2023/10/10 02:57:41;;;;;;;8.60;7.80;;;14.20;99.90;;;;;;5121896;27;20769;-67
2023/10/10 03:00:28;;;;;;;9.27;8.10;;;14.20;99.90;;;;;;5122075;27;20422;-67
2023/10/10 03:02:56;;;;;;;9.30;8.40;;;14.20;99.90;;;;;;5132229;27;20462;-67
2023/10/10 03:08:34;;;;;;;9.02;7.72;;;14.20;99.90;;;;;;5079386;28;20385;-67
2023/10/10 03:11:02;;;;;;;8.23;7.40;;;14.10;99.90;;;;;;5050385;28;20461;-67
2023/10/10 03:13:37;;;;;;;9.20;7.93;;;14.10;99.90;;;;;;5051216;28;20449;-66
2023/10/10 03:16:29;;;;;;;8.82;7.97;;;14.10;99.90;;;;;;5047866;28;20434;-65
2023/10/10 03:19:13;;;;;;;10.25;8.70;;;14.00;99.90;;;;;;5058003;28;20440;-67
2023/10/10 03:21:43;;;;;;;9.45;8.00;;;14.00;99.90;;;;;;5057120;28;20445;-67
2023/10/10 03:24:29;;;;;;;9.80;7.72;;;14.00;99.90;;;;;;5055435;28;20422;-67
2023/10/10 03:27:01;;;;;;;10.45;7.95;;;14.00;99.90;;;;;;5052906;28;20486;-68
2023/10/10 03:29:46;;;;;;;8.90;8.00;;;14.00;99.90;;;;;;5052483;28;20457;-67
2023/10/10 03:32:26;;;;;;;8.88;7.97;;;14.00;99.90;;;;;;5054359;28;20797;-69
2023/10/10 03:34:57;;;;;;;11.20;7.65;;;14.00;99.90;;;;;;5052193;28;20424;-68
2023/10/10 03:37:29;;;;;;;8.82;7.93;;;14.00;99.90;;;;;;5053622;28;20465;-67
2023/10/10 03:40:09;;;;;;;8.85;7.95;;;14.00;99.90;;;;;;5056063;28;20420;-67
2023/10/10 05:24:21;;;;;;;11.23;9.90;;;13.60;99.90;;;;;;5055329;28;20428;-69
2023/10/10 05:26:47;;;;;;;12.18;9.68;;;13.60;99.90;;;;;;5052638;28;20516;-69
2023/10/10 05:29:19;;;;;;;10.43;9.32;;;13.60;99.90;;;;;;5051152;28;20425;-68
2023/10/10 05:31:45;;;;;;;10.85;9.65;;;13.60;99.90;;;;;;5052834;28;20455;-68
2023/10/10 05:34:14;;;;;;;10.65;9.65;;;13.50;99.90;;;;;;5058109;28;20436;-69
2023/10/10 05:36:42;;;;;;;11.13;9.05;;;13.50;99.90;;;;;;5052441;28;20505;-68
2023/10/10 05:39:11;;;;;;;11.40;9.07;;;13.50;99.90;;;;;;5055691;28;20475;-68
2023/10/10 05:41:40;;;;;;;10.80;9.70;;;13.50;99.90;;;;;;5059780;28;20439;-68
2023/10/10 05:44:07;;;;;;;10.23;9.20;;;13.50;99.90;;;;;;5053228;28;20800;-67
2023/10/10 05:46:34;;;;;;;10.55;9.10;;;13.50;99.90;;;;;;5057991;28;20429;-69
2023/10/10 05:49:02;;;;;;;11.65;9.05;;;13.50;99.90;;;;;;5053752;28;20655;-68
2023/10/10 05:51:30;;;;;;;11.40;9.23;;;13.50;99.90;;;;;;5057107;28;20435;-69
2023/10/10 05:53:57;;;;;;;11.25;9.38;;;13.40;99.90;;;;;;5050880;28;20432;-69
2023/10/10 05:56:24;;;;;;;9.95;8.95;;;13.40;99.90;;;;;;5056165;28;20435;-69
2023/10/10 05:58:52;;;;;;;9.88;8.88;;;13.40;99.90;;;;;;5054230;28;20437;-68
2023/10/10 06:01:19;;;;;;;9.75;8.85;;;13.40;99.90;;;;;;5057235;28;20437;-67
2023/10/10 06:03:46;;;;;;;10.05;8.63;;;13.40;99.90;;;;;;5058349;28;20431;-68
2023/10/10 06:06:13;;;;;;;10.02;9.02;;;13.40;99.90;;;;;;5059029;28;20422;-68
2023/10/10 06:08:42;;;;;;;9.93;8.35;;;13.40;99.90;;;;;;5061191;28;20427;-66
2023/10/10 06:11:10;;;;;;;10.35;9.35;;;13.40;99.90;;;;;;5060505;28;20518;-70
2023/10/10 06:13:39;;;;;;;11.07;9.30;;;13.50;99.90;;;;;;5061766;28;20495;-66
2023/10/10 06:16:12;;;;;;;9.83;8.80;;;13.50;99.90;;;;;;5054843;28;20433;-68
2023/10/10 06:18:41;;;;;;;11.05;9.43;;;13.40;99.90;;;;;;5063705;28;20975;-68
2023/10/10 06:21:08;;;;;;;9.32;8.32;;;13.40;99.90;;;;;;5059756;28;20429;-68
2023/10/10 06:23:35;;;;;;;12.30;9.20;;;13.40;99.90;;;;;;5060532;28;20428;-68
2023/10/10 06:26:06;;;;;;;11.40;9.02;;;13.50;99.90;;;;;;5055079;28;20509;-70
2023/10/10 06:28:37;;;;;;;13.97;10.20;;;13.40;99.90;;;;;;5056453;28;20913;-68
2023/10/10 06:31:09;;;;;;;11.32;9.18;;;13.50;99.90;;;;;;5060773;28;20899;-68
2023/10/10 06:33:40;;;;;;;10.57;8.90;;;13.50;99.90;;;;;;5058697;28;20432;-68
2023/10/10 06:36:32;;;;;;;10.50;8.60;;;13.50;99.90;;;;;;5052604;28;20465;-68
2023/10/10 06:41:48;;;;;;;9.48;8.45;;;13.50;99.90;;;;;;5057879;28;20565;-68
2023/10/10 06:44:17;;;;;;;9.68;8.55;;;13.60;99.90;;;;;;5059237;28;20429;-68
2023/10/10 06:46:49;;;;;;;9.60;7.90;;;13.60;99.90;;;;;;5059549;28;20438;-68
2023/10/10 06:49:16;;;;;;;10.05;8.57;;;13.60;99.90;;;;;;5054481;28;20429;-68
2023/10/10 06:51:42;;;;;;;10.60;8.77;;;13.60;99.90;;;;;;5048776;28;20413;-66
2023/10/10 06:54:19;;;;;;;9.15;8.10;;;13.70;99.90;;;;;;5063748;28;20428;-68
2023/10/10 06:56:54;;;;;;;10.80;8.50;;;13.70;99.90;;;;;;5065346;28;20481;-68
2023/10/10 06:59:26;;;;;;;9.38;8.13;;;13.80;99.90;;;;;;5058139;28;20701;-66
2023/10/10 07:01:53;;;;;;;10.88;8.27;;;13.80;99.90;;;;;;5054686;28;20435;-68
2023/10/10 07:04:20;;;;;;;9.25;8.13;;;13.90;99.90;;;;;;5058602;28;20425;-69
2023/10/10 07:06:50;;;;;;;10.70;8.70;;;13.90;99.90;;;;;;5057481;28;20442;-68
2023/10/10 07:09:28;;;;;;;9.80;8.10;;;14.00;99.90;;;;;;5052898;28;20419;-68
2023/10/10 07:11:56;;;;;;;9.02;8.10;;;14.00;99.90;;;;;;5057626;28;20435;-68
2023/10/10 07:14:25;;;;;;;9.65;8.65;;;14.00;99.90;;;;;;5057554;28;20433;-67
2023/10/10 07:16:54;;;;;;;9.27;7.93;;;14.10;99.90;;;;;;5053249;28;20429;-68
2023/10/10 07:19:23;;;;;;;9.35;8.35;;;14.10;99.90;;;;;;5060313;28;20449;-67
2023/10/10 07:21:51;;;;;;;9.13;8.30;;;14.20;99.90;;;;;;5071653;28;20404;-67
2023/10/10 07:24:18;;;;;;;12.07;9.00;;;14.30;99.90;;;;;;5064078;28;20420;-68
2023/10/10 07:26:58;;;;;;;9.80;8.80;;;14.40;99.90;;;;;;5081024;28;20426;-66
2023/10/10 07:29:57;;;;;;;10.32;7.85;;;14.40;99.90;;;;;;5069249;28;20436;-65
2023/10/10 07:32:17;;;;;;;9.20;8.20;;;14.50;99.90;;;;;;5059561;28;20408;-69
2023/10/10 07:34:49;;;;;;;9.38;7.80;;;14.60;99.90;;;;;;5052147;28;20447;-67
2023/10/10 07:37:17;;;;;;;8.80;7.57;;;14.70;99.90;;;;;;5054683;28;20986;-68
2023/10/10 07:39:56;;;;;;;9.60;8.43;;;14.70;99.90;;;;;;5059687;28;21339;-68
2023/10/10 07:42:27;;;;;;;9.55;7.78;;;14.80;99.90;;;;;;5053548;28;21037;-69
2023/10/10 07:44:55;;;;;;;11.35;8.45;;;14.80;99.90;;;;;;5049942;28;20422;-70
2023/10/10 07:47:26;;;;;;;9.30;8.13;;;14.80;99.90;;;;;;5056407;28;20910;-68
2023/10/10 07:49:53;;;;;;;9.60;7.88;;;14.80;99.90;;;;;;5056049;28;20417;-68
2023/10/10 07:52:21;;;;;;;9.00;7.28;;;15.00;99.90;;;;;;5048307;28;20421;-68
2023/10/10 07:54:51;;;;;;;7.68;6.93;;;15.00;99.90;;;;;;5062390;28;20847;-68
2023/10/10 07:57:22;;;;;;;10.40;7.87;;;15.00;99.90;;;;;;5062447;28;20427;-68
2023/10/10 07:59:54;;;;;;;8.88;7.25;;;15.10;99.90;;;;;;5064200;28;20433;-70
2023/10/10 08:02:26;;;;;;;7.97;7.10;;;15.10;99.90;;;;;;5061258;28;20457;-68
2023/10/10 08:04:54;;;;;;;9.23;8.00;;;15.30;99.90;;;;;;5059036;28;20440;-70
2023/10/10 08:07:23;;;;;;;8.43;7.40;;;15.40;99.90;;;;;;5056323;28;20520;-70
2023/10/10 08:10:11;;;;;;;8.35;7.45;;;15.60;99.90;;;;;;5063828;28;20436;-68
2023/10/10 08:12:37;;;;;;;9.57;7.65;;;15.70;99.90;;;;;;5063329;28;20424;-67
2023/10/10 08:15:19;;;;;;;7.88;7.07;;;15.80;99.90;;;;;;5060214;28;20423;-68
2023/10/10 08:17:52;;;;;;;8.50;7.60;;;16.00;99.90;;;;;;5069066;28;20581;-67
2023/10/10 08:20:34;;;;;;;7.93;7.13;;;16.00;99.90;;;;;;5067301;28;20431;-68
2023/10/10 08:23:01;;;;;;;8.77;7.07;;;16.20;99.90;;;;;;5061979;28;20423;-69
2023/10/10 08:25:28;;;;;;;8.35;6.93;;;16.30;99.90;;;;;;5068496;28;20428;-69
2023/10/10 08:27:56;;;;;;;8.30;7.38;;;16.40;99.90;;;;;;5066409;28;20428;-69
2023/10/10 08:30:25;;;;;;;11.00;7.78;;;16.50;99.70;;;;;;5069883;28;20432;-69
2023/10/10 08:32:54;;;;;;;9.07;7.40;;;16.60;99.70;;;;;;5071620;28;20448;-68
2023/10/10 08:35:22;;;;;;;8.60;7.65;;;16.60;99.50;;;;;;5086138;28;20452;-67
2023/10/10 08:37:50;;;;;;;10.80;6.93;;;16.80;99.20;;;;;;5059339;28;20431;-70
2023/10/10 08:40:19;;;;;;;7.18;6.47;;;17.00;98.60;;;;;;5057678;28;20431;-69
2023/10/10 08:42:47;;;;;;;7.80;6.72;;;17.20;98.10;;;;;;5061778;28;20431;-68
2023/10/10 08:45:22;;;;;;;8.60;6.47;;;17.40;97.60;;;;;;5059384;28;20463;-69
2023/10/10 08:47:49;;;;;;;7.50;6.80;;;17.60;97.10;;;;;;5068154;28;20427;-67
2023/10/10 08:50:18;;;;;;;8.25;6.80;;;17.60;96.10;;;;;;5065961;28;20696;-68
2023/10/10 08:52:45;;;;;;;9.07;6.65;;;17.80;96.30;;;;;;5058452;28;20414;-68
2023/10/10 08:55:18;;;;;;;7.78;6.35;;;18.00;95.80;;;;;;5066322;28;20956;-70
2023/10/10 08:57:45;;;;;;;7.87;6.60;;;18.20;94.80;;;;;;5068239;28;20439;-70
2023/10/10 09:00:17;;;;;;;7.47;6.20;;;18.40;94.00;;;;;;5063229;28;20903;-70
2023/10/10 09:02:44;;;;;;;7.40;6.57;;;18.50;93.60;;;;;;5067662;28;20454;-70
2023/10/10 09:05:14;;;;;;;6.95;6.05;;;18.60;93.70;;;;;;5064502;28;20434;-68
2023/10/10 09:07:43;;;;;;;9.52;6.10;;;18.80;93.00;;;;;;5066093;28;20937;-68
2023/10/10 09:10:13;;;;;;;9.67;6.50;;;19.10;92.60;;;;;;5058406;28;20489;-69
2023/10/10 09:12:56;;;;;;;7.85;6.00;;;19.20;91.70;;;;;;5059799;28;20420;-69
2023/10/10 09:15:23;;;;;;;6.45;5.75;;;19.40;91.50;;;;;;5055305;28;20446;-70
2023/10/10 09:17:55;;;;;;;7.03;6.23;;;19.40;91.00;;;;;;5065787;28;20434;-71
2023/10/10 09:20:28;;;;;;;6.80;6.07;;;19.50;90.80;;;;;;5064550;28;20413;-69
2023/10/10 09:23:02;;;;;;;6.70;5.90;;;19.60;90.60;;;;;;5056530;28;20439;-70
2023/10/10 09:25:41;;;;;;;7.65;6.25;;;19.60;90.20;;;;;;5067859;28;20635;-70
2023/10/10 09:28:10;;;;;;;8.82;6.30;;;19.70;90.00;;;;;;5065999;28;20525;-73
2023/10/10 09:30:41;;;;;;;8.00;6.45;;;19.60;90.10;;;;;;5054090;28;20437;-70
2023/10/10 09:33:16;;;;;;;7.63;6.35;;;19.70;90.00;;;;;;5065921;28;20436;-67
2023/10/10 09:35:48;;;;;;;6.30;5.70;;;19.70;89.70;;;;;;5061889;28;20435;-71
2023/10/10 09:38:19;;;;;;;7.75;6.07;;;19.70;89.70;;;;;;5057018;28;20929;-70
2023/10/10 09:40:48;;;;;;;6.90;5.97;;;19.80;90.10;;;;;;5067860;28;20469;-71
2023/10/10 09:43:25;;;;;;;7.28;6.40;;;19.90;89.00;;;;;;5064046;28;20427;-70
2023/10/10 09:46:10;;;;;;;6.90;6.10;;;20.00;88.40;;;;;;5063480;28;20485;-71
2023/10/10 09:49:17;;;;;;;6.30;5.65;;;20.00;88.30;;;;;;5061578;28;20485;-69
2023/10/10 09:54:35;;;;;;;7.25;5.68;;;20.10;87.90;;;;;;5061167;28;20436;-69
2023/10/10 09:57:08;;;;;;;7.20;5.55;;;20.30;88.00;;;;;;5057099;28;20463;-71
2023/10/10 09:59:37;;;;;;;6.60;5.53;;;20.40;87.20;;;;;;5048623;28;20413;-67
2023/10/10 10:02:06;;;;;;;7.30;6.50;;;20.50;86.40;;;;;;5054777;28;20456;-69
2023/10/10 10:04:41;;;;;;;9.80;6.10;;;20.60;85.10;;;;;;5057573;28;20408;-71
2023/10/10 10:07:28;;;;;;;6.55;5.30;;;20.60;85.10;;;;;;5060033;28;20792;-70
2023/10/10 10:10:18;;;;;;;6.32;5.00;;;20.80;84.60;;;;;;5061533;28;20423;-71
2023/10/10 10:13:13;;;;;;;6.33;5.20;;;20.90;83.80;;;;;;5059836;28;21027;-71
2023/10/10 10:15:51;;;;;;;6.80;5.13;;;21.10;84.60;;;;;;5066288;28;20418;-70
2023/10/10 10:18:44;;;;;;;6.40;5.50;;;21.20;82.90;;;;;;5058660;28;20424;-71
2023/10/10 10:21:18;;;;;;;6.57;5.03;;;21.30;82.50;;;;;;5069897;28;20437;-72
2023/10/10 10:23:55;;;;;;;7.03;5.55;;;21.50;82.50;;;;;;5065004;28;20455;-71
2023/10/10 10:26:41;;;;;;;7.05;5.50;;;21.60;82.40;;;;;;5056532;28;20457;-71
2023/10/10 10:29:15;;;;;;;7.57;5.60;;;21.70;81.40;;;;;;5063615;28;20429;-71
2023/10/10 10:31:49;;;;;;;5.70;5.10;;;21.70;80.70;;;;;;5063910;28;20431;-70
2023/10/10 10:34:23;;;;;;;7.80;4.90;;;21.80;81.60;;;;;;5060088;28;20417;-69
2023/10/10 10:36:56;;;;;;;5.30;4.80;;;21.80;81.00;;;;;;5059355;28;20422;-70
2023/10/10 10:39:25;;;;;;;6.82;4.60;;;22.00;80.50;;;;;;5063067;28;20412;-71
2023/10/10 10:41:59;;;;;;;6.88;5.10;;;22.20;79.80;;;;;;5060728;28;20434;-73
2023/10/10 10:44:54;;;;;;;5.90;4.90;;;22.20;78.40;;;;;;5062162;28;20938;-73
2023/10/10 10:47:45;;;;;;;6.97;5.20;;;22.30;77.50;;;;;;5055103;28;20424;-71
2023/10/10 10:50:28;;;;;;;9.95;5.00;;;22.40;76.60;;;;;;5055384;28;20425;-72
2023/10/10 10:52:59;;;;;;;8.15;5.15;;;22.40;76.90;;;;;;5056634;28;20428;-70
2023/10/10 10:55:28;;;;;;;9.10;5.15;;;22.40;76.50;;;;;;5059880;28;20940;-73
2023/10/10 10:58:06;;;;;;;6.75;5.20;;;22.50;76.30;;;;;;5051491;28;20520;-71
2023/10/10 11:03:23;;;;;;;7.77;4.67;;;22.50;76.30;;;;;;5052221;28;21031;-70
2023/10/10 11:05:53;;;;;;;7.22;5.00;;;22.70;75.40;;;;;;5055600;28;20425;-69
2023/10/10 11:08:50;;;;;;;5.55;4.40;;;22.80;75.20;;;;;;5063284;28;20497;-69
2023/10/10 11:11:23;;;;;;;6.00;4.60;;;22.90;73.70;;;;;;5055128;28;20409;-69
2023/10/10 11:13:54;;;;;;;5.72;4.53;;;23.10;72.30;;;;;;5055874;28;20458;-67
2023/10/10 11:16:23;;;;;;;6.40;5.05;;;23.30;71.60;;;;;;5058602;28;20492;-67
2023/10/10 11:18:57;;;;;;;6.00;4.82;;;23.20;70.60;;;;;;5061160;28;21237;-66
2023/10/10 11:21:27;;;;;;;7.93;4.75;;;23.30;71.80;;;;;;5053499;28;20429;-67
2023/10/10 11:23:58;;;;;;;7.77;4.60;;;23.40;70.50;;;;;;5049032;28;20452;-67
2023/10/10 11:26:33;;;;;;;7.22;4.10;;;23.60;69.80;;;;;;5056666;28;20512;-69
2023/10/10 11:29:01;;;;;;;5.38;4.35;;;23.80;67.40;;;;;;5060202;28;20427;-66
2023/10/10 11:31:35;;;;;;;8.18;5.20;;;23.80;66.70;;;;;;5062405;28;20429;-66
2023/10/10 11:34:26;;;;;;;6.93;4.60;;;24.10;66.50;;;;;;5063252;28;20427;-67
2023/10/10 11:37:13;;;;;;;6.70;4.55;;;24.20;65.90;;;;;;5058878;28;20449;-67
2023/10/10 11:39:46;;;;;;;7.43;4.78;;;24.30;64.20;;;;;;5057203;28;20429;-69
2023/10/10 11:42:23;;;;;;;5.75;4.35;;;24.50;64.00;;;;;;5058536;28;20425;-67
2023/10/10 11:44:54;;;;;;;5.13;4.63;;;24.70;62.00;;;;;;5062056;28;21112;-68
2023/10/10 11:47:25;;;;;;;5.15;4.20;;;24.80;60.80;;;;;;5056407;28;20461;-67
2023/10/10 11:50:00;;;;;;;5.20;4.30;;;24.90;61.10;;;;;;5060349;28;20459;-67
2023/10/10 11:52:28;;;;;;;6.30;4.05;;;24.90;59.40;;;;;;5060134;28;20428;-67
2023/10/10 11:54:58;;;;;;;6.90;4.40;;;24.80;58.90;;;;;;5067072;28;20483;-68
2023/10/10 11:57:28;;;;;;;6.22;4.40;;;24.70;58.20;;;;;;5064303;28;20433;-68
2023/10/10 11:59:58;;;;;;;5.50;4.10;;;24.80;58.40;;;;;;5057681;28;20471;-68
2023/10/10 12:02:35;;;;;;;6.28;4.10;;;24.80;59.10;;;;;;5066162;28;20523;-67
2023/10/10 12:05:14;;;;;;;5.22;4.00;;;24.80;58.30;;;;;;5061431;28;20479;-67
2023/10/10 12:07:41;;;;;;;6.70;3.88;;;24.90;58.00;;;;;;5063583;28;20512;-68
2023/10/10 12:10:08;;;;;;;8.05;4.30;;;25.10;57.10;;;;;;5064831;28;20898;-66
2023/10/10 12:12:35;;;;;;;4.70;3.88;;;25.30;56.60;;;;;;5066694;28;20431;-67
2023/10/10 12:15:03;;;;;;;6.72;3.97;;;25.40;55.10;;;;;;5073397;28;20426;-67
2023/10/10 12:17:31;;;;;;;4.95;3.70;;;25.50;55.60;;;;;;5063271;28;20428;-67
2023/10/10 12:19:57;;;;;;;5.13;4.00;;;25.60;54.90;;;;;;5060174;28;20445;-66
2023/10/10 12:22:24;;;;;;;6.30;3.65;;;25.70;54.30;;;;;;5053578;28;20414;-67
2023/10/10 12:24:51;;;;;;;5.57;4.20;;;25.70;53.70;;;;;;5070592;28;20510;-67
2023/10/10 12:27:18;;;;;;;4.88;4.20;;;25.80;54.10;;;;;;5080762;28;20485;-65
2023/10/10 12:29:47;;;;;;;6.35;3.90;;;25.90;53.20;;;;;;5074797;28;20777;-67
2023/10/10 12:32:18;;;;;;;5.32;3.60;;;25.90;52.20;;;;;;5062181;28;20440;-67
2023/10/10 12:34:47;;;;;;;6.05;4.07;;;26.00;52.00;;;;;;5064625;28;20435;-68
2023/10/10 12:37:15;;;;;;;5.43;4.03;;;26.10;51.70;;;;;;5060191;28;20475;-67
2023/10/10 12:39:42;;;;;;;6.28;3.70;;;26.10;51.20;;;;;;5057284;28;20493;-66
2023/10/10 12:42:09;;;;;;;7.13;4.07;;;26.20;51.50;;;;;;5053836;28;20551;-69
2023/10/10 12:44:36;;;;;;;5.72;4.18;;;26.40;51.10;;;;;;5059881;28;20429;-67
2023/10/10 12:47:06;;;;;;;4.55;3.90;;;26.50;52.30;;;;;;5061414;28;20785;-67
2023/10/10 12:49:36;;;;;;;5.27;3.80;;;26.60;51.70;;;;;;5052464;28;20429;-69
2023/10/10 12:52:11;;;;;;;5.17;3.70;;;26.70;50.40;;;;;;5051201;28;20791;-69
2023/10/10 12:54:38;;;;;;;6.00;4.00;;;26.60;49.60;;;;;;5056959;28;20461;-68
2023/10/10 12:57:13;;;;;;;5.57;4.00;;;26.50;49.70;;;;;;5057908;28;20512;-66
2023/10/10 12:59:39;;;;;;;5.50;4.00;;;26.60;50.10;;;;;;5053395;28;20879;-69
2023/10/10 13:02:08;;;;;;;6.80;4.15;;;26.60;49.70;;;;;;5058339;28;20435;-68
2023/10/10 13:04:38;;;;;;;6.00;3.80;;;26.60;49.00;;;;;;5057521;28;20425;-67
2023/10/10 13:07:05;;;;;;;5.43;3.70;;;26.60;50.00;;;;;;5059269;28;20423;-68
2023/10/10 13:09:31;;;;;;;4.88;3.60;;;26.80;49.50;;;;;;5052274;28;20436;-67
2023/10/10 13:12:02;;;;;;;6.28;3.85;;;26.80;48.80;;;;;;5057811;28;20437;-68
2023/10/10 13:14:32;;;;;;;5.60;3.60;;;27.00;47.70;;;;;;5050535;28;20440;-67
2023/10/10 13:19:41;;;;;;;4.38;3.47;;;27.20;48.40;;;;;;5056056;28;20413;-68
2023/10/10 13:22:20;;;;;;;4.13;3.35;;;27.30;46.70;;;;;;5054902;28;20509;-69
2023/10/10 13:24:47;;;;;;;5.03;3.40;;;27.40;43.80;;;;;;5051345;28;20425;-68
2023/10/10 13:27:14;;;;;;;3.90;3.20;;;27.40;43.90;;;;;;5058993;28;20429;-69
2023/10/10 13:29:40;;;;;;;4.17;3.57;;;27.50;46.20;;;;;;5055632;28;20425;-69
2023/10/10 13:32:07;;;;;;;5.10;3.90;;;27.70;44.10;;;;;;5051891;28;20879;-69
2023/10/10 13:34:37;;;;;;;5.75;3.90;;;27.80;45.30;;;;;;5059401;28;20471;-69
2023/10/10 13:37:07;;;;;;;5.20;4.10;;;27.90;43.00;;;;;;5053705;28;20894;-68
2023/10/10 13:39:43;;;;;;;6.80;3.90;;;27.80;41.90;;;;;;5054068;28;20413;-68
2023/10/10 13:42:14;;;;;;;6.05;3.50;;;27.80;41.50;;;;;;5055173;28;20493;-68
2023/10/10 13:44:41;;;;;;;6.97;3.90;;;27.80;40.70;;;;;;5060608;28;20435;-72
2023/10/10 13:47:08;;;;;;;5.13;3.50;;;27.90;41.00;;;;;;5054521;28;20433;-71
2023/10/10 13:49:44;;;;;;;7.00;3.03;;;28.10;41.30;;;;;;5061073;28;20426;-72
2023/10/10 13:52:16;;;;;;;4.28;3.10;;;28.40;37.50;;;;;;5053956;28;20468;-72
2023/10/10 13:54:42;;;;;;;5.10;3.30;;;28.60;35.30;;;;;;5061977;28;20919;-73
2023/10/10 13:57:09;;;;;;;5.40;3.45;;;28.70;34.00;;;;;;5051783;28;20429;-74
2023/10/10 13:59:38;;;;;;;4.63;2.70;;;28.80;33.50;;;;;;5050716;28;20433;-72
2023/10/10 14:02:10;;;;;;;5.23;3.20;;;28.80;32.80;;;;;;5062736;28;20431;-72
2023/10/10 14:04:48;;;;;;;4.80;3.10;;;28.90;33.00;;;;;;5056905;28;21051;-73
2023/10/10 14:07:16;;;;;;;4.45;2.60;;;28.90;32.60;;;;;;5051971;28;20425;-73
2023/10/10 14:09:48;;;;;;;5.28;3.50;;;29.00;32.60;;;;;;5059258;28;21112;-73
2023/10/10 14:12:20;;;;;;;5.27;3.37;;;29.10;31.60;;;;;;5061969;28;20429;-72
2023/10/10 14:14:47;;;;;;;3.50;2.90;;;29.10;32.50;;;;;;5055338;28;20511;-73
2023/10/10 14:17:14;;;;;;;5.30;2.90;;;29.00;32.50;;;;;;5054862;28;20429;-71
2023/10/10 14:19:41;;;;;;;4.40;2.97;;;29.00;32.20;;;;;;5049470;28;20421;-72
2023/10/10 14:22:10;;;;;;;4.43;3.10;;;29.20;30.80;;;;;;5057125;28;20447;-72
2023/10/10 14:24:38;;;;;;;4.70;3.45;;;29.20;30.90;;;;;;5062483;28;20437;-74
2023/10/10 14:27:05;;;;;;;3.42;3.03;;;29.20;31.70;;;;;;5059169;28;20802;-72
2023/10/10 14:29:41;;;;;;;4.70;3.30;;;29.20;31.90;;;;;;5069786;28;20453;-72
2023/10/10 14:32:10;;;;;;;5.10;3.10;;;28.90;30.90;;;;;;5078860;28;20420;-71
2023/10/10 14:34:39;;;;;;;5.40;2.80;;;28.90;31.90;;;;;;5081048;28;20764;-73
2023/10/10 14:37:06;;;;;;;4.80;3.40;;;28.90;32.50;;;;;;5061300;28;20421;-73
2023/10/10 14:39:36;;;;;;;3.70;2.90;;;29.10;31.30;;;;;;5062349;28;20430;-74
2023/10/10 14:42:04;;;;;;;4.07;3.10;;;29.20;30.30;;;;;;5054809;28;21036;-72
2023/10/10 14:44:33;;;;;;;4.25;3.30;;;29.20;30.70;;;;;;5056198;28;20447;-72
2023/10/10 14:47:03;;;;;;;4.28;3.47;;;29.20;30.00;;;;;;5058721;28;20438;-70
2023/10/10 14:49:30;;;;;;;4.65;3.40;;;29.20;30.80;;;;;;5060749;28;20450;-72
2023/10/10 14:52:03;;;;;;;4.30;3.20;;;29.30;30.30;;;;;;5057041;28;20423;-73
2023/10/10 14:54:30;;;;;;;3.90;3.03;;;29.40;30.00;;;;;;5054419;28;20433;-72
2023/10/10 14:56:57;;;;;;;3.90;3.33;;;29.40;30.00;;;;;;5050772;28;20437;-74
2023/10/10 14:59:31;;;;;;;5.10;3.50;;;29.30;30.00;;;;;;5148556;22;20622;-73
2023/10/10 15:01:59;;;;;;;4.75;3.20;;;29.10;30.30;;;;;;5060595;28;20869;-73